Anch, Alaska
Current Conditions -  °F | °C
As of 8:58 AM on Thursday 30 Oct 2014 (Local Time) from PAED Reporting Station
Overcast Overcast  
Wind Chill: 22°   Ceiling: 4200
Heat Index: 22°   Visibility: 10mi
Dew Point: 19°   Wind: 0mph
Humidity: 89%   Direction: NA
Pressure: 29.57"   Gusts: NA
Location:  61.2265°N, 149.62°W
Report Text: PAED 301658Z AUTO 00000KT 10SM BKN042 OVC050 M05/M07 A2957 RMK AO2 SLP012 T10551071 $
Loading
Personal Weather Stations






























Interactive Weather Map
Tropical Storm Tracking
New forecast layout! Learn more

10-Day Weather Forecast

Advertisements
Track Severe Weather on mobile